Time,TemperatureF,DewpointF,PressureIn,WindDirection,WindDirectionDegrees,WindSpeedMPH,WindSpeedGustMPH,Humidity,HourlyPrecipIn,Conditions,Clouds,dailyrainin,SoftwareType,DateUTC
2013-05-19 00:00:00,40.5,39.7,30.32,West,271,0.0,0.0,97,0.00,,,0.00,Wunderground v.1.15,2013-05-19 04:00:00,
2013-05-19 00:10:00,40.4,39.6,30.32,West,271,0.0,0.0,97,0.00,,,0.00,Wunderground v.1.15,2013-05-19 04:10:00,
2013-05-19 00:20:00,40.6,39.8,30.32,West,271,0.0,0.0,97,0.00,,,0.00,Wunderground v.1.15,2013-05-19 04:20:00,
2013-05-19 00:30:00,40.6,39.8,30.32,West,271,0.0,0.0,97,0.00,,,0.00,Wunderground v.1.15,2013-05-19 04:30:00,
2013-05-19 00:40:00,41.1,40.6,30.31,West,271,0.0,0.0,98,0.00,,,0.00,Wunderground v.1.15,2013-05-19 04:40:00,
2013-05-19 00:50:00,41.4,40.9,30.31,West,271,0.0,0.0,98,0.00,,,0.00,Wunderground v.1.15,2013-05-19 04:50:00,
2013-05-19 01:00:00,41.6,40.8,30.31,WSW,239,0.0,0.0,97,0.00,,,0.00,Wunderground v.1.15,2013-05-19 05:00:00,
2013-05-19 01:10:00,41.3,40.5,30.31,WSW,239,0.0,0.0,97,0.00,,,0.00,Wunderground v.1.15,2013-05-19 05:10:00,
2013-05-19 01:20:00,41.0,40.2,30.31,West,273,0.0,0.0,97,0.00,,,0.00,Wunderground v.1.15,2013-05-19 05:20:00,
2013-05-19 01:30:00,40.8,40.0,30.31,West,273,0.0,0.0,97,0.00,,,0.00,Wunderground v.1.15,2013-05-19 05:30:00,
2013-05-19 01:40:00,40.8,40.0,30.31,West,273,0.0,0.0,97,0.00,,,0.00,Wunderground v.1.15,2013-05-19 05:40:00,
2013-05-19 01:50:00,40.8,40.0,30.32,West,269,0.0,0.0,97,0.00,,,0.00,Wunderground v.1.15,2013-05-19 05:50:00,
2013-05-19 02:00:00,40.8,40.0,30.32,WSW,238,0.0,0.0,97,0.00,,,0.00,Wunderground v.1.15,2013-05-19 06:00:00,
2013-05-19 02:10:00,40.9,40.1,30.31,West,271,0.0,0.0,97,0.00,,,0.00,Wunderground v.1.15,2013-05-19 06:10:00,
2013-05-19 02:20:00,41.0,40.2,30.31,West,264,0.0,0.0,97,0.00,,,0.00,Wunderground v.1.15,2013-05-19 06:20:00,
2013-05-19 02:30:00,40.8,39.7,30.31,SW,232,0.0,0.0,96,0.00,,,0.00,Wunderground v.1.15,2013-05-19 06:30:00,
2013-05-19 02:40:00,40.8,39.7,30.31,West,278,0.0,0.0,96,0.00,,,0.00,Wunderground v.1.15,2013-05-19 06:40:00,
2013-05-19 02:50:00,40.7,39.6,30.31,West,260,0.0,0.0,96,0.00,,,0.00,Wunderground v.1.15,2013-05-19 06:50:00,
2013-05-19 03:00:00,40.4,39.4,30.31,West,260,0.0,0.0,96,0.00,,,0.00,Wunderground v.1.15,2013-05-19 07:00:00,
2013-05-19 03:10:00,40.1,39.1,30.31,West,260,0.0,0.0,96,0.00,,,0.00,Wunderground v.1.15,2013-05-19 07:10:00,
2013-05-19 03:20:00,39.9,38.9,30.31,West,260,0.0,0.0,96,0.00,,,0.00,Wunderground v.1.15,2013-05-19 07:20:00,
2013-05-19 03:30:00,40.3,39.5,30.31,West,260,0.0,0.0,97,0.00,,,0.00,Wunderground v.1.15,2013-05-19 07:30:00,
2013-05-19 03:40:00,40.3,39.5,30.31,West,260,0.0,0.0,97,0.00,,,0.00,Wunderground v.1.15,2013-05-19 07:40:00,
2013-05-19 03:50:00,40.3,39.5,30.31,West,260,0.0,0.0,97,0.00,,,0.00,Wunderground v.1.15,2013-05-19 07:50:00,
2013-05-19 04:00:00,40.8,40.0,30.31,West,271,0.0,0.0,97,0.00,,,0.00,Wunderground v.1.15,2013-05-19 08:00:00,
2013-05-19 04:10:00,40.9,40.1,30.31,West,271,0.0,0.0,97,0.00,,,0.00,Wunderground v.1.15,2013-05-19 08:10:00,
2013-05-19 04:20:00,40.9,40.1,30.32,West,271,0.0,0.0,97,0.00,,,0.00,Wunderground v.1.15,2013-05-19 08:20:00,
2013-05-19 04:30:00,41.6,41.1,30.32,West,271,0.0,0.0,98,0.00,,,0.00,Wunderground v.1.15,2013-05-19 08:30:00,
2013-05-19 04:40:00,42.2,41.7,30.32,West,271,0.0,0.0,98,0.00,,,0.00,Wunderground v.1.15,2013-05-19 08:40:00,
2013-05-19 04:50:00,42.6,41.8,30.32,West,271,0.0,0.0,97,0.00,,,0.00,Wunderground v.1.15,2013-05-19 08:50:00,
2013-05-19 05:00:00,43.0,42.2,30.32,West,271,0.0,0.0,97,0.00,,,0.00,Wunderground v.1.15,2013-05-19 09:00:00,
2013-05-19 05:10:00,43.3,42.5,30.33,West,271,0.0,0.0,97,0.00,,,0.00,Wunderground v.1.15,2013-05-19 09:10:00,
2013-05-19 05:20:00,43.6,42.5,30.33,West,271,0.0,0.0,96,0.00,,,0.00,Wunderground v.1.15,2013-05-19 09:20:00,
2013-05-19 05:30:00,43.7,42.6,30.33,West,270,0.0,0.0,96,0.00,,,0.00,Wunderground v.1.15,2013-05-19 09:30:00,
2013-05-19 05:40:00,43.9,42.6,30.33,East,89,0.0,0.0,95,0.00,,,0.00,Wunderground v.1.15,2013-05-19 09:40:00,
2013-05-19 05:50:00,43.9,42.6,30.34,East,89,0.0,0.0,95,0.00,,,0.00,Wunderground v.1.15,2013-05-19 09:50:00,
2013-05-19 06:00:00,44.0,42.7,30.34,East,89,0.0,0.0,95,0.00,,,0.00,Wunderground v.1.15,2013-05-19 10:00:00,
2013-05-19 06:10:00,44.2,42.9,30.34,NE,41,0.0,0.0,95,0.00,,,0.00,Wunderground v.1.15,2013-05-19 10:10:00,
2013-05-19 06:20:00,44.6,43.3,30.34,NE,51,0.0,0.0,95,0.00,,,0.00,Wunderground v.1.15,2013-05-19 10:20:00,
2013-05-19 06:30:00,44.8,43.2,30.34,East,101,0.0,0.0,94,0.00,,,0.00,Wunderground v.1.15,2013-05-19 10:30:00,
2013-05-19 06:40:00,44.8,42.9,30.34,ENE,78,0.0,1.0,93,0.00,,,0.00,Wunderground v.1.15,2013-05-19 10:40:00,
2013-05-19 06:50:00,45.2,43.6,30.34,NE,34,0.0,0.0,94,0.00,,,0.00,Wunderground v.1.15,2013-05-19 10:50:00,
2013-05-19 07:00:00,45.5,43.9,30.34,ESE,103,0.0,0.0,94,0.00,,,0.00,Wunderground v.1.15,2013-05-19 11:00:00,
2013-05-19 07:10:00,45.7,44.1,30.34,NE,50,0.0,0.0,94,0.00,,,0.00,Wunderground v.1.15,2013-05-19 11:10:00,
2013-05-19 07:20:00,45.9,44.3,30.35,NNE,16,0.0,0.0,94,0.00,,,0.00,Wunderground v.1.15,2013-05-19 11:20:00,
2013-05-19 07:30:00,46.0,44.4,30.35,NE,34,0.0,0.0,94,0.00,,,0.00,Wunderground v.1.15,2013-05-19 11:30:00,
2013-05-19 07:40:00,46.4,44.5,30.35,East,83,1.0,5.0,93,0.00,,,0.00,Wunderground v.1.15,2013-05-19 11:40:00,
2013-05-19 07:50:00,47.0,45.1,30.35,ENE,74,1.0,4.0,93,0.00,,,0.00,Wunderground v.1.15,2013-05-19 11:50:00,
2013-05-19 08:00:00,47.4,44.6,30.35,ESE,115,0.0,0.0,90,0.00,,,0.00,Wunderground v.1.15,2013-05-19 12:00:00,
2013-05-19 08:10:00,47.7,44.6,30.35,East,89,1.0,1.0,89,0.00,,,0.00,Wunderground v.1.15,2013-05-19 12:10:00,
2013-05-19 08:20:00,48.0,45.2,30.35,East,98,2.0,2.0,90,0.00,,,0.00,Wunderground v.1.15,2013-05-19 12:20:00,
2013-05-19 08:30:00,48.4,45.3,30.35,NE,49,2.0,2.0,89,0.00,,,0.00,Wunderground v.1.15,2013-05-19 12:30:00,
2013-05-19 08:40:00,48.6,44.9,30.35,SE,134,3.0,3.0,87,0.00,,,0.00,Wunderground v.1.15,2013-05-19 12:40:00,
2013-05-19 08:50:00,49.5,43.6,30.35,SE,129,4.0,4.0,80,0.00,,,0.00,Wunderground v.1.15,2013-05-19 12:50:00,
2013-05-19 09:00:00,49.9,44.6,30.35,SE,133,4.0,5.0,82,0.00,,,0.00,Wunderground v.1.15,2013-05-19 13:00:00,
2013-05-19 09:10:00,49.7,43.8,30.35,East,91,4.0,4.0,80,0.00,,,0.00,Wunderground v.1.15,2013-05-19 13:10:00,
2013-05-19 09:20:00,49.5,44.2,30.35,ESE,122,4.0,4.0,82,0.00,,,0.00,Wunderground v.1.15,2013-05-19 13:20:00,
2013-05-19 09:30:00,49.5,43.9,30.35,ESE,103,4.0,4.0,81,0.00,,,0.00,Wunderground v.1.15,2013-05-19 13:30:00,
2013-05-19 09:40:00,50.3,44.7,30.35,ENE,70,3.0,3.0,81,0.00,,,0.00,Wunderground v.1.15,2013-05-19 13:40:00,
2013-05-19 09:50:00,50.3,45.0,30.35,SSE,150,3.0,3.0,82,0.00,,,0.00,Wunderground v.1.15,2013-05-19 13:50:00,
2013-05-19 10:00:00,50.3,44.7,30.36,SSE,153,3.0,3.0,81,0.00,,,0.00,Wunderground v.1.15,2013-05-19 14:00:00,
2013-05-19 10:10:00,50.4,44.8,30.36,East,91,1.0,4.0,81,0.00,,,0.00,Wunderground v.1.15,2013-05-19 14:10:00,
2013-05-19 10:20:00,50.9,44.9,30.36,East,90,3.0,4.0,80,0.00,,,0.00,Wunderground v.1.15,2013-05-19 14:20:00,
2013-05-19 10:30:00,52.4,46.1,30.36,NE,56,4.0,4.0,79,0.00,,,0.00,Wunderground v.1.15,2013-05-19 14:30:00,
2013-05-19 10:40:00,52.6,46.6,30.36,East,93,3.0,3.0,80,0.00,,,0.00,Wunderground v.1.15,2013-05-19 14:40:00,
2013-05-19 10:50:00,53.3,45.9,30.36,SSE,166,3.0,8.0,76,0.00,,,0.00,Wunderground v.1.15,2013-05-19 14:50:00,
2013-05-19 11:00:00,53.0,46.3,30.36,SE,139,3.0,3.0,78,0.00,,,0.00,Wunderground v.1.15,2013-05-19 15:00:00,
2013-05-19 11:10:00,53.6,46.6,30.36,SE,146,4.0,4.0,77,0.00,,,0.00,Wunderground v.1.15,2013-05-19 15:10:00,
2013-05-19 11:20:00,53.8,45.7,30.36,ESE,117,3.0,3.0,74,0.00,,,0.00,Wunderground v.1.15,2013-05-19 15:20:00,
2013-05-19 11:30:00,54.3,45.8,30.36,East,79,3.0,3.0,73,0.00,,,0.00,Wunderground v.1.15,2013-05-19 15:30:00,
2013-05-19 11:40:00,53.9,46.2,30.36,East,101,2.0,3.0,75,0.00,,,0.00,Wunderground v.1.15,2013-05-19 15:40:00,
2013-05-19 11:50:00,54.5,46.4,30.35,ESE,110,3.0,5.0,74,0.00,,,0.00,Wunderground v.1.15,2013-05-19 15:50:00,
2013-05-19 12:00:00,54.8,47.0,30.35,SE,135,5.0,7.0,75,0.00,,,0.00,Wunderground v.1.15,2013-05-19 16:00:00,
2013-05-19 12:10:00,55.1,47.3,30.35,SE,137,4.0,6.0,75,0.00,,,0.00,Wunderground v.1.15,2013-05-19 16:10:00,
2013-05-19 12:20:00,54.7,46.2,30.35,SSE,159,6.0,6.0,73,0.00,,,0.00,Wunderground v.1.15,2013-05-19 16:20:00,
2013-05-19 12:30:00,55.8,48.0,30.35,NE,56,3.0,3.0,75,0.00,,,0.00,Wunderground v.1.15,2013-05-19 16:30:00,
2013-05-19 12:40:00,55.7,46.8,30.35,ESE,116,4.0,4.0,72,0.00,,,0.00,Wunderground v.1.15,2013-05-19 16:40:00,
2013-05-19 12:50:00,56.3,46.6,30.35,SW,224,5.0,5.0,70,0.00,,,0.00,Wunderground v.1.15,2013-05-19 16:50:00,
2013-05-19 13:00:00,56.6,47.3,30.35,SE,124,4.0,4.0,71,0.00,,,0.00,Wunderground v.1.15,2013-05-19 17:00:00,
2013-05-19 13:10:00,56.9,47.6,30.34,ESE,113,4.0,6.0,71,0.00,,,0.00,Wunderground v.1.15,2013-05-19 17:10:00,
2013-05-19 13:20:00,57.0,46.9,30.33,SE,131,4.0,4.0,69,0.00,,,0.00,Wunderground v.1.15,2013-05-19 17:20:00,
2013-05-19 13:30:00,57.7,48.0,30.33,ESE,113,4.0,4.0,70,0.00,,,0.00,Wunderground v.1.15,2013-05-19 17:30:00,
2013-05-19 13:40:00,58.0,48.3,30.33,North,349,3.0,3.0,70,0.00,,,0.00,Wunderground v.1.15,2013-05-19 17:40:00,
2013-05-19 13:50:00,58.3,48.9,30.32,East,79,4.0,9.0,71,0.00,,,0.00,Wunderground v.1.15,2013-05-19 17:50:00,
2013-05-19 14:00:00,57.6,46.3,30.32,East,88,4.0,4.0,66,0.00,,,0.00,Wunderground v.1.15,2013-05-19 18:00:00,
2013-05-19 14:10:00,57.7,47.2,30.32,ESE,115,5.0,5.0,68,0.00,,,0.00,Wunderground v.1.15,2013-05-19 18:10:00,
2013-05-19 14:20:00,57.8,46.9,30.31,ESE,110,5.0,5.0,67,0.00,,,0.00,Wunderground v.1.15,2013-05-19 18:20:00,
2013-05-19 14:30:00,58.0,47.5,30.31,ESE,110,5.0,7.0,68,0.00,,,0.00,Wunderground v.1.15,2013-05-19 18:30:00,
2013-05-19 14:40:00,57.9,46.6,30.31,East,96,4.0,7.0,66,0.00,,,0.00,Wunderground v.1.15,2013-05-19 18:40:00,
2013-05-19 14:50:00,57.1,46.6,30.30,ENE,78,4.0,5.0,68,0.00,,,0.00,Wunderground v.1.15,2013-05-19 18:50:00,
2013-05-19 15:00:00,57.0,46.5,30.30,SE,143,5.0,5.0,68,0.00,,,0.00,Wunderground v.1.15,2013-05-19 19:00:00,
2013-05-19 15:10:00,57.1,47.4,30.30,East,100,5.0,8.0,70,0.00,,,0.00,Wunderground v.1.15,2013-05-19 19:10:00,
2013-05-19 15:20:00,56.6,47.7,30.30,SE,132,6.0,6.0,72,0.00,,,0.00,Wunderground v.1.15,2013-05-19 19:20:00,
2013-05-19 15:30:00,56.3,48.1,30.30,SE,141,5.0,5.0,74,0.00,,,0.00,Wunderground v.1.15,2013-05-19 19:30:00,
2013-05-19 15:40:00,56.2,48.7,30.30,SSE,166,5.0,5.0,76,0.00,,,0.00,Wunderground v.1.15,2013-05-19 19:40:00,
2013-05-19 15:50:00,55.6,48.5,30.30,SE,125,5.0,5.0,77,0.00,,,0.00,Wunderground v.1.15,2013-05-19 19:50:00,
2013-05-19 16:00:00,54.6,47.2,30.30,SSE,162,6.0,7.0,76,0.00,,,0.00,Wunderground v.1.15,2013-05-19 20:00:00,
2013-05-19 16:10:00,53.5,47.1,30.30,SSE,159,7.0,7.0,79,0.00,,,0.00,Wunderground v.1.15,2013-05-19 20:10:00,
2013-05-19 16:20:00,52.8,47.1,30.30,SE,135,6.0,6.0,81,0.00,,,0.00,Wunderground v.1.15,2013-05-19 20:20:00,
2013-05-19 16:30:00,52.5,47.2,30.30,SSE,162,6.0,6.0,82,0.00,,,0.00,Wunderground v.1.15,2013-05-19 20:30:00,
2013-05-19 16:40:00,52.6,47.6,30.30,SE,138,5.0,6.0,83,0.00,,,0.00,Wunderground v.1.15,2013-05-19 20:40:00,
2013-05-19 16:50:00,52.5,47.2,30.30,SE,127,6.0,8.0,82,0.00,,,0.00,Wunderground v.1.15,2013-05-19 20:50:00,
2013-05-19 17:00:00,51.9,47.2,30.30,SE,146,6.0,6.0,84,0.00,,,0.00,Wunderground v.1.15,2013-05-19 21:00:00,
2013-05-19 17:10:00,51.4,47.0,30.29,SE,128,7.0,7.0,85,0.00,,,0.00,Wunderground v.1.15,2013-05-19 21:10:00,
2013-05-19 17:20:00,51.0,46.6,30.29,ESE,111,7.0,7.0,85,0.00,,,0.00,Wunderground v.1.15,2013-05-19 21:20:00,
2013-05-19 17:30:00,50.7,46.4,30.29,SE,126,6.0,7.0,85,0.00,,,0.00,Wunderground v.1.15,2013-05-19 21:30:00,
2013-05-19 17:40:00,50.1,46.4,30.29,East,98,7.0,7.0,87,0.00,,,0.00,Wunderground v.1.15,2013-05-19 21:40:00,
2013-05-19 17:50:00,49.7,46.3,30.29,ESE,117,7.0,7.0,88,0.00,,,0.00,Wunderground v.1.15,2013-05-19 21:50:00,
2013-05-19 18:00:00,49.5,46.1,30.29,ENE,58,6.0,10.0,88,0.00,,,0.00,Wunderground v.1.15,2013-05-19 22:00:00,
2013-05-19 18:10:00,49.3,46.2,30.29,SE,126,6.0,6.0,89,0.00,,,0.00,Wunderground v.1.15,2013-05-19 22:10:00,
2013-05-19 18:20:00,48.8,46.0,30.29,ESE,122,7.0,7.0,90,0.00,,,0.00,Wunderground v.1.15,2013-05-19 22:20:00,
2013-05-19 18:30:00,48.4,45.9,30.29,ESE,110,6.0,9.0,91,0.00,,,0.00,Wunderground v.1.15,2013-05-19 22:30:00,
2013-05-19 18:40:00,48.1,45.9,30.28,SE,127,6.0,6.0,92,0.00,,,0.00,Wunderground v.1.15,2013-05-19 22:40:00,
2013-05-19 18:50:00,47.9,45.7,30.29,ESE,113,6.0,6.0,92,0.00,,,0.00,Wunderground v.1.15,2013-05-19 22:50:00,
2013-05-19 19:00:00,47.7,45.8,30.29,SE,133,5.0,8.0,93,0.00,,,0.00,Wunderground v.1.15,2013-05-19 23:00:00,
2013-05-19 19:10:00,47.5,45.6,30.28,East,83,7.0,7.0,93,0.00,,,0.00,Wunderground v.1.15,2013-05-19 23:10:00,
2013-05-19 19:20:00,47.2,45.6,30.27,ESE,123,7.0,7.0,94,0.00,,,0.00,Wunderground v.1.15,2013-05-19 23:20:00,
2013-05-19 19:30:00,47.2,45.6,30.27,East,90,5.0,5.0,94,0.00,,,0.00,Wunderground v.1.15,2013-05-19 23:30:00,
2013-05-19 19:40:00,47.2,45.6,30.27,SE,124,5.0,5.0,94,0.00,,,0.00,Wunderground v.1.15,2013-05-19 23:40:00,
2013-05-19 19:50:00,47.0,45.6,30.27,East,94,6.0,6.0,95,0.00,,,0.00,Wunderground v.1.15,2013-05-19 23:50:00,
2013-05-19 20:00:00,47.0,45.6,30.27,East,91,5.0,5.0,95,0.00,,,0.00,Wunderground v.1.15,2013-05-20 00:00:00,
2013-05-19 20:10:00,47.1,46.0,30.27,SE,129,3.0,7.0,96,0.00,,,0.00,Wunderground v.1.15,2013-05-20 00:10:00,
2013-05-19 20:20:00,47.2,46.1,30.27,ESE,123,4.0,4.0,96,0.00,,,0.00,Wunderground v.1.15,2013-05-20 00:20:00,
2013-05-19 20:30:00,47.2,46.4,30.27,ESE,114,4.0,4.0,97,0.00,,,0.00,Wunderground v.1.15,2013-05-20 00:30:00,
2013-05-19 20:40:00,47.3,46.5,30.27,SE,125,4.0,7.0,97,0.00,,,0.00,Wunderground v.1.15,2013-05-20 00:40:00,
2013-05-19 20:50:00,47.2,46.4,30.27,ESE,116,6.0,6.0,97,0.00,,,0.00,Wunderground v.1.15,2013-05-20 00:50:00,
2013-05-19 21:00:00,47.1,46.3,30.27,ESE,102,6.0,6.0,97,0.00,,,0.00,Wunderground v.1.15,2013-05-20 01:00:00,
2013-05-19 21:10:00,47.1,46.6,30.26,ESE,113,6.0,9.0,98,0.00,,,0.00,Wunderground v.1.15,2013-05-20 01:10:00,
2013-05-19 21:20:00,47.0,46.5,30.27,ESE,117,7.0,7.0,98,0.00,,,0.00,Wunderground v.1.15,2013-05-20 01:20:00,
2013-05-19 21:30:00,47.1,46.6,30.27,SSE,150,5.0,6.0,98,0.00,,,0.00,Wunderground v.1.15,2013-05-20 01:30:00,
2013-05-19 21:40:00,47.0,46.5,30.26,SSE,150,5.0,5.0,98,0.00,,,0.00,Wunderground v.1.15,2013-05-20 01:40:00,
2013-05-19 21:50:00,47.0,46.5,30.26,SE,139,4.0,6.0,98,0.00,,,0.00,Wunderground v.1.15,2013-05-20 01:50:00,
2013-05-19 22:00:00,46.9,46.4,30.26,East,97,6.0,6.0,98,0.00,,,0.00,Wunderground v.1.15,2013-05-20 02:00:00,
2013-05-19 22:10:00,46.9,46.4,30.26,ENE,77,4.0,4.0,98,0.00,,,0.00,Wunderground v.1.15,2013-05-20 02:10:00,
2013-05-19 22:20:00,46.9,46.4,30.26,ESE,113,4.0,4.0,98,0.00,,,0.00,Wunderground v.1.15,2013-05-20 02:20:00,
2013-05-19 22:30:00,46.9,46.4,30.26,SE,135,4.0,4.0,98,0.00,,,0.00,Wunderground v.1.15,2013-05-20 02:30:00,
2013-05-19 22:40:00,47.0,46.5,30.25,ESE,117,2.0,3.0,98,0.00,,,0.00,Wunderground v.1.15,2013-05-20 02:40:00,
2013-05-19 22:50:00,47.0,46.5,30.25,SE,129,3.0,3.0,98,0.00,,,0.00,Wunderground v.1.15,2013-05-20 02:50:00,
2013-05-19 23:00:00,47.1,46.6,30.25,East,85,2.0,3.0,98,0.00,,,0.00,Wunderground v.1.15,2013-05-20 03:00:00,
2013-05-19 23:10:00,47.2,46.7,30.25,SE,133,2.0,2.0,98,0.00,,,0.00,Wunderground v.1.15,2013-05-20 03:10:00,
2013-05-19 23:20:00,47.2,46.7,30.24,East,98,1.0,1.0,98,0.00,,,0.00,Wunderground v.1.15,2013-05-20 03:20:00,
2013-05-19 23:30:00,47.3,46.8,30.24,ESE,123,1.0,1.0,98,0.00,,,0.00,Wunderground v.1.15,2013-05-20 03:30:00,
2013-05-19 23:40:00,47.4,47.1,30.24,East,89,1.0,2.0,99,0.00,,,0.00,Wunderground v.1.15,2013-05-20 03:40:00,
2013-05-19 23:50:00,47.5,47.2,30.22,ESE,113,1.0,1.0,99,0.00,,,0.00,Wunderground v.1.15,2013-05-20 03:50:00,